Time;durP1;ratioP1;P1;durP2;ratioP2;P2;SDS_P1;SDS_P2;PMS_P1;PMS_P2;Temp;Humidity;BMP_temperature;BMP_pressure;BME280_temperature;BME280_humidity;BME280_pressure;Samples;Min_cycle;Max_cycle;Signal;HPM_P1;HPM_P2
2022/06/19 00:00:45;;;;;;;8.88;1.60;;;;;;;16.09;72.54;100860.91;5056967;28;20051;-47
2022/06/19 00:03:21;;;;;;;15.43;2.40;;;;;;;16.08;73.18;100864.56;5055467;28;20598;-50
2022/06/19 00:05:50;;;;;;;9.48;2.08;;;;;;;16.08;72.37;100852.13;5054902;28;20051;-51
2022/06/19 00:08:19;;;;;;;12.30;1.92;;;;;;;16.07;72.47;100836.34;5053744;28;20090;-51
2022/06/19 00:10:48;;;;;;;11.23;1.90;;;;;;;16.14;72.26;100842.78;5063497;28;20056;-51
2022/06/19 00:13:16;;;;;;;9.70;2.17;;;;;;;15.90;73.11;100833.38;5063064;28;20102;-51
2022/06/19 00:15:45;;;;;;;13.40;2.40;;;;;;;15.88;73.06;100832.66;5067845;28;20083;-52
2022/06/19 00:18:13;;;;;;;13.15;2.03;;;;;;;15.93;73.18;100830.44;5069661;28;20388;-51
2022/06/19 00:20:42;;;;;;;14.23;2.22;;;;;;;15.88;73.33;100827.34;5068319;28;20053;-48
2022/06/19 00:23:10;;;;;;;12.05;2.10;;;;;;;15.87;73.34;100821.22;5060039;28;20407;-49
2022/06/19 00:25:40;;;;;;;13.98;2.35;;;;;;;15.85;73.84;100811.72;5058196;28;20576;-46
2022/06/19 00:28:08;;;;;;;11.05;1.95;;;;;;;15.76;73.74;100815.13;5058396;28;20113;-48
2022/06/19 00:30:36;;;;;;;13.00;2.22;;;;;;;15.75;74.74;100808.16;5062269;28;20052;-49
2022/06/19 00:33:05;;;;;;;8.40;1.73;;;;;;;15.70;74.71;100813.88;5068323;28;20037;-49
2022/06/19 00:35:34;;;;;;;8.95;1.58;;;;;;;15.74;74.93;100811.78;5062608;28;20041;-48
2022/06/19 00:38:03;;;;;;;14.48;2.50;;;;;;;15.76;75.52;100799.22;5058072;28;20048;-48
2022/06/19 00:40:33;;;;;;;11.68;1.70;;;;;;;15.76;75.24;100805.38;5056873;28;20064;-50
2022/06/19 00:43:03;;;;;;;12.82;2.22;;;;;;;15.64;75.60;100809.94;5053557;28;20087;-50
2022/06/19 00:45:34;;;;;;;13.80;1.90;;;;;;;15.68;75.49;100813.19;5055750;28;20037;-47
2022/06/19 00:48:09;;;;;;;8.90;1.58;;;;;;;15.76;75.59;100817.78;5054980;28;20099;-49
2022/06/19 00:50:41;;;;;;;10.45;2.20;;;;;;;15.63;75.50;100816.22;5062352;28;20040;-52
2022/06/19 00:53:15;;;;;;;10.18;2.28;;;;;;;15.52;76.30;100808.34;5067360;28;20103;-51
2022/06/19 00:55:47;;;;;;;10.32;2.30;;;;;;;15.55;76.58;100832.75;5057342;28;20558;-50
2022/06/19 00:58:21;;;;;;;10.77;2.40;;;;;;;15.58;76.37;100836.97;5055327;28;20438;-52
2022/06/19 01:00:55;;;;;;;13.50;2.42;;;;;;;15.67;76.52;100833.53;5056062;28;20473;-49
2022/06/19 01:03:27;;;;;;;11.32;2.08;;;;;;;15.57;76.60;100823.84;5064460;28;20053;-50
2022/06/19 01:05:56;;;;;;;9.93;2.28;;;;;;;15.48;76.86;100833.44;5071503;28;20075;-49
2022/06/19 01:08:24;;;;;;;10.43;2.50;;;;;;;15.59;76.48;100827.22;5074315;28;20048;-49
2022/06/19 01:10:53;;;;;;;14.55;2.65;;;;;;;15.55;75.98;100831.94;5074356;28;20052;-49
2022/06/19 01:13:26;;;;;;;11.75;2.10;;;;;;;15.55;76.17;100839.88;5074017;28;20052;-52
2022/06/19 01:15:55;;;;;;;12.35;2.13;;;;;;;15.39;75.54;100821.81;5074017;28;20060;-49
2022/06/19 01:18:24;;;;;;;10.18;2.22;;;;;;;15.34;75.33;100814.28;5072750;28;20132;-52
2022/06/19 01:20:57;;;;;;;15.38;3.35;;;;;;;15.26;75.78;100810.63;5074071;28;20399;-47
2022/06/19 01:23:37;;;;;;;17.00;3.08;;;;;;;15.23;75.94;100793.16;5073420;28;20048;-49
2022/06/19 01:26:07;;;;;;;12.93;2.20;;;;;;;15.31;74.90;100790.69;5074174;28;20391;-46
2022/06/19 01:28:55;;;;;;;12.25;2.30;;;;;;;15.20;75.25;100793.41;5073952;28;20044;-52
2022/06/19 01:31:29;;;;;;;13.23;2.42;;;;;;;15.15;75.40;100819.47;5073668;28;20445;-49
2022/06/19 01:34:02;;;;;;;13.85;2.65;;;;;;;15.19;75.35;100882.66;5072866;28;20515;-50
2022/06/19 01:36:33;;;;;;;14.77;2.53;;;;;;;15.24;74.49;100964.38;5069851;28;20049;-50
2022/06/19 01:39:02;;;;;;;12.05;2.08;;;;;;;15.26;73.47;100998.72;5072633;28;20052;-53
2022/06/19 01:41:33;;;;;;;10.43;2.20;;;;;;;15.20;72.31;100931.16;5073476;28;20040;-49
2022/06/19 01:44:01;;;;;;;14.02;2.28;;;;;;;15.04;71.31;100905.94;5068989;28;20537;-49
2022/06/19 01:46:31;;;;;;;9.35;1.88;;;;;;;15.19;70.40;100914.44;5069228;28;20047;-47
2022/06/19 01:48:59;;;;;;;12.02;2.13;;;;;;;15.25;68.62;100902.47;5073464;28;20048;-50
2022/06/19 01:51:28;;;;;;;9.18;1.80;;;;;;;15.25;67.28;100891.06;5073379;28;20500;-51
2022/06/19 01:54:00;;;;;;;12.35;2.05;;;;;;;15.11;66.54;100871.03;5073387;28;20052;-49
2022/06/19 01:56:31;;;;;;;10.82;2.15;;;;;;;15.01;64.71;100863.84;5073190;28;20078;-50
2022/06/19 01:59:06;;;;;;;10.40;1.83;;;;;;;15.09;64.02;100867.66;5072378;28;20503;-50
2022/06/19 02:01:38;;;;;;;13.70;2.38;;;;;;;15.07;63.50;100865.13;5067230;28;20098;-51
2022/06/19 02:04:08;;;;;;;9.80;1.75;;;;;;;15.14;62.66;100882.19;5071598;28;20047;-46
2022/06/19 02:06:41;;;;;;;15.35;2.00;;;;;;;15.05;62.67;100872.34;5072638;28;20059;-51
2022/06/19 02:09:09;;;;;;;;;;;;;;;15.02;61.88;100862.03;5073133;28;20049;-47
2022/06/19 02:11:39;;;;;;;10.77;1.77;;;;;;;15.14;61.64;100866.28;5072804;28;19959;-52
2022/06/19 02:14:09;;;;;;;11.70;2.00;;;;;;;15.12;61.41;100868.25;5071153;28;20094;-53
2022/06/19 02:16:41;;;;;;;10.95;1.55;;;;;;;15.09;61.59;100875.59;5067337;28;20056;-48
2022/06/19 02:19:10;;;;;;;11.63;2.03;;;;;;;15.12;61.54;100905.31;5072615;28;20052;-51
2022/06/19 02:21:40;;;;;;;9.13;2.05;;;;;;;15.06;61.54;100892.59;5072698;28;20079;-48
2022/06/19 02:24:12;;;;;;;8.68;1.63;;;;;;;15.04;61.56;100891.88;5072701;28;20576;-47
2022/06/19 02:26:43;;;;;;;13.10;2.00;;;;;;;15.03;61.29;100891.03;5072588;28;20052;-50
2022/06/19 02:29:16;;;;;;;11.65;2.17;;;;;;;15.04;60.73;100905.94;5073018;28;20492;-53
2022/06/19 02:31:48;;;;;;;10.40;1.90;;;;;;;14.97;61.33;100901.28;5088236;28;20114;-52
2022/06/19 02:34:21;;;;;;;12.52;2.33;;;;;;;14.93;61.86;100906.00;5072440;28;20079;-51
2022/06/19 02:36:53;;;;;;;11.18;1.92;;;;;;;14.96;62.41;100903.09;5072372;28;20059;-49
2022/06/19 02:39:35;;;;;;;7.90;1.60;;;;;;;14.88;64.20;100897.59;5072289;28;20060;-50
2022/06/19 02:42:30;;;;;;;9.15;1.83;;;;;;;14.90;65.30;100922.13;5084830;28;20492;-51
2022/06/19 02:45:01;;;;;;;15.27;2.15;;;;;;;14.83;66.20;100926.25;5067349;28;20578;-49
2022/06/19 02:47:34;;;;;;;11.93;2.13;;;;;;;14.79;67.18;100912.44;5069516;28;20062;-51
2022/06/19 02:50:04;;;;;;;;;;;;;;;14.83;67.76;100897.13;5069562;28;20045;-49
2022/06/19 02:52:32;;;;;;;19.35;2.30;;;;;;;14.76;68.71;100888.03;5072006;28;19970;-48
2022/06/19 02:55:01;;;;;;;12.95;2.10;;;;;;;14.81;69.40;100880.56;5072306;28;20098;-49
2022/06/19 02:57:30;;;;;;;12.00;1.85;;;;;;;14.73;68.53;100901.53;5071065;28;20056;-49
2022/06/19 02:59:58;;;;;;;12.82;2.20;;;;;;;14.79;68.72;100904.50;5072294;28;20056;-46
2022/06/19 03:02:28;;;;;;;14.07;2.00;;;;;;;14.79;68.48;100933.63;5069039;28;20049;-49
2022/06/19 03:05:00;;;;;;;9.45;2.00;;;;;;;14.78;68.28;100965.50;5068231;28;20960;-49
2022/06/19 03:07:29;;;;;;;12.60;1.88;;;;;;;14.80;68.10;100966.22;5071759;28;20056;-49
2022/06/19 03:09:57;;;;;;;8.80;1.73;;;;;;;14.77;67.15;100942.66;5072273;28;20127;-47
2022/06/19 03:12:25;;;;;;;6.45;1.63;;;;;;;14.77;67.54;100918.84;5072057;28;20047;-47
2022/06/19 03:14:55;;;;;;;10.20;1.98;;;;;;;14.77;67.96;100902.94;5068900;28;20044;-52
2022/06/19 03:17:23;;;;;;;10.77;1.70;;;;;;;14.72;68.46;100895.38;5067311;28;20053;-49
2022/06/19 03:19:56;;;;;;;9.40;1.55;;;;;;;14.69;67.77;100893.81;5072234;28;20047;-49
2022/06/19 03:22:24;;;;;;;11.35;1.80;;;;;;;14.73;68.22;100899.72;5070820;28;20131;-51
2022/06/19 03:24:52;;;;;;;9.50;1.55;;;;;;;14.74;68.57;100951.69;5068514;28;20533;-47
2022/06/19 03:27:20;;;;;;;8.60;1.77;;;;;;;14.75;67.65;101055.75;5070668;28;20132;-53
2022/06/19 03:29:49;;;;;;;7.43;1.38;;;;;;;14.76;67.51;101090.03;5070686;28;20055;-47
2022/06/19 03:32:18;;;;;;;8.05;1.15;;;;;;;14.75;66.88;101037.22;5071647;28;20531;-48
2022/06/19 03:34:46;;;;;;;9.45;1.48;;;;;;;14.70;66.73;100968.78;5068287;28;20102;-47
2022/06/19 03:37:14;;;;;;;8.55;1.67;;;;;;;14.69;66.45;100975.88;5070422;28;20063;-51
2022/06/19 03:39:43;;;;;;;8.98;1.45;;;;;;;14.59;66.29;100987.28;5068987;28;20135;-49
2022/06/19 03:42:12;;;;;;;8.30;1.42;;;;;;;14.69;66.35;100978.50;5068125;28;20040;-50
2022/06/19 03:44:40;;;;;;;7.43;1.20;;;;;;;14.66;65.96;100970.81;5070221;28;20075;-51
2022/06/19 03:47:08;;;;;;;6.28;1.50;;;;;;;14.53;66.83;100968.31;5067838;28;20052;-50
2022/06/19 03:49:38;;;;;;;10.73;1.50;;;;;;;14.48;67.95;100932.56;5073299;28;20060;-52
2022/06/19 03:52:07;;;;;;;6.88;1.40;;;;;;;14.54;68.15;100947.97;5075945;28;20048;-52
2022/06/19 03:54:35;;;;;;;8.90;1.33;;;;;;;14.53;69.01;100959.50;5075989;28;20071;-49
2022/06/19 03:57:04;;;;;;;12.77;1.63;;;;;;;14.58;70.18;100954.69;5075410;28;20048;-52
2022/06/19 03:59:32;;;;;;;13.27;1.60;;;;;;;14.57;71.19;100955.66;5071268;28;20052;-47
2022/06/19 04:02:00;;;;;;;12.55;1.80;;;;;;;14.52;72.26;100945.44;5071992;28;20127;-50
2022/06/19 04:04:28;;;;;;;14.10;1.95;;;;;;;14.51;73.04;100948.22;5074180;28;20060;-53
2022/06/19 04:06:57;;;;;;;8.88;1.92;;;;;;;14.45;74.19;100938.09;5075515;28;20410;-50
2022/06/19 04:09:25;;;;;;;16.52;2.10;;;;;;;14.46;75.29;100911.53;5075104;28;20044;-54
2022/06/19 04:11:54;;;;;;;8.55;1.70;;;;;;;14.41;75.65;100905.78;5073942;28;20045;-51
2022/06/19 04:14:22;;;;;;;11.98;1.85;;;;;;;14.44;76.32;100883.50;5074669;28;20055;-49
2022/06/19 04:16:50;;;;;;;13.13;1.77;;;;;;;14.35;77.19;100835.66;5074633;28;20074;-48
2022/06/19 04:19:18;;;;;;;12.10;1.95;;;;;;;14.43;77.54;100885.31;5075244;28;20543;-46
2022/06/19 04:21:47;;;;;;;11.40;1.70;;;;;;;14.42;77.77;100891.56;5072113;28;20071;-49
2022/06/19 04:24:18;;;;;;;9.63;1.88;;;;;;;14.45;77.92;100875.47;5072080;28;20123;-51
2022/06/19 04:26:46;;;;;;;12.00;2.17;;;;;;;14.41;77.82;100862.59;5075122;28;20048;-47
2022/06/19 04:29:14;;;;;;;11.52;2.08;;;;;;;14.39;78.13;100857.44;5074835;28;20075;-52
2022/06/19 04:31:42;;;;;;;11.88;2.22;;;;;;;14.46;77.89;100844.53;5072195;28;20048;-49
2022/06/19 04:34:11;;;;;;;9.40;1.52;;;;;;;14.48;76.91;100824.06;5071875;28;20049;-49
2022/06/19 04:36:40;;;;;;;12.20;1.73;;;;;;;14.53;76.95;100813.97;5073649;28;20047;-48
2022/06/19 04:39:08;;;;;;;12.98;1.98;;;;;;;14.54;76.81;100784.72;5074802;28;20067;-49
2022/06/19 04:41:43;;;;;;;8.40;1.38;;;;;;;14.60;76.30;100742.84;5074818;28;20045;-48
2022/06/19 04:44:14;;;;;;;11.30;1.67;;;;;;;14.63;75.30;100758.50;5074761;28;20048;-49
2022/06/19 04:46:42;;;;;;;13.90;1.98;;;;;;;14.56;74.71;100744.94;5074727;28;20055;-45
2022/06/19 04:49:13;;;;;;;11.30;1.90;;;;;;;14.66;74.55;100723.84;5074674;28;20045;-48
2022/06/19 04:51:42;;;;;;;13.95;2.30;;;;;;;14.70;75.14;100691.69;5073568;28;20040;-45
2022/06/19 04:54:11;;;;;;;14.30;1.80;;;;;;;14.61;75.83;100679.19;5070029;28;20455;-50
2022/06/19 04:56:41;;;;;;;13.60;2.58;;;;;;;14.61;77.20;100705.66;5072271;28;20102;-48
2022/06/19 04:59:09;;;;;;;12.60;2.05;;;;;;;14.74;76.26;100704.66;5073197;28;20048;-48
2022/06/19 05:01:40;;;;;;;13.40;1.98;;;;;;;14.70;75.50;100712.03;5069913;28;20414;-53
2022/06/19 05:04:12;;;;;;;11.10;1.90;;;;;;;14.80;75.45;100678.50;5071277;28;20127;-48
2022/06/19 05:06:41;;;;;;;12.83;1.70;;;;;;;14.84;73.62;100669.31;5074322;28;20052;-49
2022/06/19 05:09:10;;;;;;;11.38;1.67;;;;;;;14.88;73.39;100673.38;5074259;28;20480;-49
2022/06/19 05:11:38;;;;;;;13.65;2.55;;;;;;;14.95;73.42;100676.34;5074638;28;20483;-48
2022/06/19 05:14:07;;;;;;;9.77;1.60;;;;;;;15.01;72.80;100664.38;5074136;28;20074;-52
2022/06/19 05:16:35;;;;;;;9.82;1.60;;;;;;;15.08;72.32;100660.25;5069059;28;21110;-51
2022/06/19 05:19:04;;;;;;;12.00;2.30;;;;;;;15.08;72.63;100684.09;5071562;28;20044;-50
2022/06/19 05:21:33;;;;;;;10.88;2.08;;;;;;;15.14;71.61;100669.47;5072479;28;20079;-50
2022/06/19 05:24:01;;;;;;;11.68;1.80;;;;;;;15.19;71.74;100662.78;5070927;28;20052;-46
2022/06/19 05:26:32;;;;;;;10.32;1.90;;;;;;;15.20;71.34;100666.25;5072403;28;20052;-50
2022/06/19 05:29:00;;;;;;;8.50;1.70;;;;;;;15.26;71.37;100694.06;5073472;28;20048;-47
2022/06/19 05:31:31;;;;;;;7.95;1.55;;;;;;;15.31;70.26;100705.06;5067764;28;20049;-50
2022/06/19 05:34:00;;;;;;;9.52;1.60;;;;;;;15.40;69.65;100720.16;5071488;28;20103;-51
2022/06/19 05:36:36;;;;;;;10.90;1.73;;;;;;;15.55;70.14;100763.84;5073879;28;20462;-50
2022/06/19 05:39:08;;;;;;;11.23;1.65;;;;;;;15.69;69.61;100761.81;5073414;28;20063;-52
2022/06/19 05:41:39;;;;;;;11.02;1.67;;;;;;;15.88;68.66;100771.66;5069536;28;20114;-51
2022/06/19 05:44:07;;;;;;;11.80;2.30;;;;;;;15.99;66.57;100782.16;5069961;28;20057;-49
2022/06/19 05:46:37;;;;;;;9.57;2.17;;;;;;;16.14;65.50;100785.25;5073567;28;20559;-51
2022/06/19 05:49:05;;;;;;;9.80;1.73;;;;;;;16.23;65.89;100796.84;5073587;28;20433;-51
2022/06/19 05:51:33;;;;;;;11.35;2.00;;;;;;;16.37;65.31;100832.75;5073170;28;20079;-49
2022/06/19 05:54:01;;;;;;;10.48;1.55;;;;;;;16.50;64.32;100870.50;5073586;28;20110;-48
2022/06/19 05:56:30;;;;;;;7.45;1.30;;;;;;;16.56;62.45;100877.91;5073201;28;20045;-46
2022/06/19 05:58:58;;;;;;;11.13;1.67;;;;;;;16.69;62.16;100863.53;5073505;28;20052;-46
2022/06/19 06:01:28;;;;;;;11.07;1.60;;;;;;;16.83;61.73;100849.81;5072999;28;20048;-51
2022/06/19 06:03:59;;;;;;;7.75;1.30;;;;;;;17.01;59.99;100868.56;5069036;28;20072;-53
2022/06/19 06:06:31;;;;;;;8.68;1.42;;;;;;;17.15;60.52;100885.91;5068892;28;20076;-52
2022/06/19 06:08:59;;;;;;;12.02;1.45;;;;;;;17.37;59.95;100876.78;5073280;28;20139;-53
2022/06/19 06:11:27;;;;;;;10.95;1.77;;;;;;;17.42;57.90;100864.88;5071056;28;20047;-50
2022/06/19 06:13:55;;;;;;;8.68;1.60;;;;;;;17.53;58.69;100876.19;5068583;28;20396;-51
2022/06/19 06:16:23;;;;;;;6.25;1.40;;;;;;;17.57;58.10;100884.69;5070901;28;20048;-51
2022/06/19 06:18:51;;;;;;;7.63;1.48;;;;;;;17.71;58.51;100889.53;5068680;28;20044;-49
2022/06/19 06:21:23;;;;;;;6.55;1.20;;;;;;;17.85;57.82;100887.41;5069331;28;20143;-48
2022/06/19 06:23:52;;;;;;;12.60;1.83;;;;;;;17.88;56.79;100900.41;5072754;28;20090;-51
2022/06/19 06:26:22;;;;;;;8.85;1.80;;;;;;;18.07;56.95;100902.16;5072373;28;20102;-51
2022/06/19 06:28:52;;;;;;;6.80;1.17;;;;;;;18.09;54.36;100913.47;5072603;28;20059;-48
2022/06/19 06:31:20;;;;;;;7.22;1.42;;;;;;;18.18;55.43;100911.78;5072533;28;20443;-50
2022/06/19 06:33:55;;;;;;;9.00;1.73;;;;;;;18.03;53.42;100922.06;5072612;28;20044;-45
2022/06/19 06:36:25;;;;;;;8.10;1.45;;;;;;;18.15;53.63;100925.38;5071123;28;20135;-48
2022/06/19 06:38:53;;;;;;;8.07;1.75;;;;;;;18.30;52.85;100931.06;5069949;28;20075;-48
2022/06/19 06:41:21;;;;;;;9.65;1.40;;;;;;;18.20;52.57;100942.59;5068546;28;20052;-50
2022/06/19 06:43:50;;;;;;;10.52;1.40;;;;;;;18.13;50.36;100964.59;5071388;28;20497;-48
2022/06/19 06:46:19;;;;;;;5.68;1.10;;;;;;;18.10;49.67;100988.84;5071315;28;20045;-51
2022/06/19 06:48:49;;;;;;;9.00;1.30;;;;;;;18.17;50.17;100976.63;5068536;28;20045;-51
2022/06/19 06:51:20;;;;;;;7.28;1.40;;;;;;;18.30;49.60;100977.13;5070410;28;20048;-48
2022/06/19 06:53:50;;;;;;;8.32;1.42;;;;;;;18.41;48.45;100984.91;5072312;28;20045;-51
2022/06/19 06:56:20;;;;;;;4.88;1.25;;;;;;;18.30;46.62;101006.41;5072326;28;20064;-50
2022/06/19 06:58:48;;;;;;;7.35;1.40;;;;;;;18.35;48.40;101021.94;5072171;28;20066;-50
2022/06/19 07:01:19;;;;;;;7.93;1.20;;;;;;;18.14;48.60;101025.66;5072652;28;20078;-50
2022/06/19 07:03:54;;;;;;;10.02;1.20;;;;;;;17.84;49.30;101047.97;5072369;28;20411;-50
2022/06/19 07:06:23;;;;;;;7.05;1.23;;;;;;;17.80;49.60;101087.31;5072198;28;20149;-48
2022/06/19 07:08:53;;;;;;;7.57;1.27;;;;;;;17.77;50.39;101105.41;5071924;28;20495;-51
2022/06/19 07:11:25;;;;;;;8.18;1.60;;;;;;;17.64;51.30;101098.53;5071782;28;20533;-51
2022/06/19 07:13:53;;;;;;;6.20;1.58;;;;;;;17.49;52.14;101102.56;5067805;28;20456;-49
2022/06/19 07:16:21;;;;;;;11.52;1.40;;;;;;;17.36;53.45;101113.47;5068896;28;20068;-51
2022/06/19 07:18:49;;;;;;;10.23;2.08;;;;;;;17.39;54.48;101114.03;5072266;28;20139;-51
2022/06/19 07:21:17;;;;;;;8.43;1.73;;;;;;;17.26;55.90;101104.63;5072173;28;20557;-48
2022/06/19 07:23:45;;;;;;;9.60;1.48;;;;;;;17.04;57.53;101086.16;5075377;28;20122;-48
2022/06/19 07:26:17;;;;;;;11.25;1.67;;;;;;;16.99;59.31;101092.84;5076193;28;20094;-51
2022/06/19 07:28:46;;;;;;;9.20;2.20;;;;;;;16.82;63.92;101100.44;5076196;28;20102;-50
2022/06/19 07:31:21;;;;;;;12.57;1.92;;;;;;;16.62;67.89;101099.53;5076088;28;20070;-51
2022/06/19 07:33:49;;;;;;;9.15;1.48;;;;;;;16.59;72.92;101110.41;5072826;28;20045;-55
2022/06/19 07:36:20;;;;;;;12.02;1.40;;;;;;;16.54;76.04;101105.50;5073358;28;20045;-49
2022/06/19 07:38:48;;;;;;;10.90;1.88;;;;;;;16.42;78.63;101093.28;5074331;28;20179;-52
2022/06/19 07:41:18;;;;;;;10.38;2.40;;;;;;;16.50;80.40;101104.09;5072344;28;20503;-50
2022/06/19 07:43:46;;;;;;;10.30;1.92;;;;;;;16.66;80.66;101108.06;5074470;28;20048;-50
2022/06/19 07:46:15;;;;;;;8.05;1.73;;;;;;;16.52;81.11;101122.53;5075863;28;20422;-50
2022/06/19 07:51:29;;;;;;;20.95;2.70;;;;;;;16.14;84.73;101155.81;5073060;28;20127;-51
2022/06/19 07:53:59;;;;;;;11.68;2.60;;;;;;;16.28;86.44;101163.47;5075655;28;20053;-47
2022/06/19 07:56:29;;;;;;;8.70;2.13;;;;;;;16.38;85.33;101182.94;5075602;28;20434;-53
2022/06/19 07:58:58;;;;;;;12.52;1.92;;;;;;;16.12;87.80;101197.56;5072403;28;20047;-47
2022/06/19 08:01:26;;;;;;;9.60;2.05;;;;;;;15.84;87.34;101199.84;5070545;28;20372;-52
2022/06/19 08:04:14;;;;;;;12.05;2.15;;;;;;;15.82;91.15;101193.81;5075524;28;20060;-53
2022/06/19 08:06:43;;;;;;;13.80;2.72;;;;;;;15.71;91.42;101145.13;5075475;28;20058;-47
2022/06/19 08:09:11;;;;;;;9.57;2.50;;;;;;;15.71;93.62;101166.34;5075551;28;20044;-50
2022/06/19 08:11:40;;;;;;;18.45;2.88;;;;;;;15.51;94.57;101162.66;5075240;28;20052;-50
2022/06/19 08:14:08;;;;;;;15.55;2.40;;;;;;;15.30;99.07;101127.31;5075392;28;20048;-50
2022/06/19 08:16:36;;;;;;;11.63;2.38;;;;;;;15.39;100.00;101092.09;5075442;28;20051;-52
2022/06/19 08:19:05;;;;;;;11.85;2.45;;;;;;;15.41;100.00;101066.31;5074269;28;20044;-52
2022/06/19 08:21:33;;;;;;;12.82;2.30;;;;;;;15.25;100.00;101071.19;5072807;28;20059;-52
2022/06/19 08:24:01;;;;;;;13.65;2.42;;;;;;;15.17;100.00;101083.28;5071891;28;20094;-47
2022/06/19 08:26:29;;;;;;;13.77;2.50;;;;;;;15.10;100.00;101070.63;5075009;28;20484;-47
2022/06/19 08:29:00;;;;;;;9.32;2.22;;;;;;;14.97;100.00;101058.38;5074964;28;20049;-51
2022/06/19 08:31:29;;;;;;;13.68;2.38;;;;;;;14.88;100.00;101030.00;5075000;28;20051;-53
2022/06/19 08:33:57;;;;;;;9.93;2.28;;;;;;;14.99;100.00;101040.56;5072148;28;20499;-48
2022/06/19 08:36:26;;;;;;;13.68;2.40;;;;;;;14.83;100.00;101063.94;5071819;28;20548;-51
2022/06/19 08:38:58;;;;;;;14.90;2.50;;;;;;;15.04;100.00;101087.88;5074747;28;20064;-52
2022/06/19 08:41:57;;;;;;;12.90;2.50;;;;;;;15.08;100.00;101093.75;5073669;28;20735;-46
2022/06/19 08:44:45;;;;;;;10.30;2.67;;;;;;;15.22;100.00;101093.47;5069635;28;20477;-53
2022/06/19 08:47:27;;;;;;;12.38;2.55;;;;;;;15.13;100.00;101112.75;5074920;28;20044;-51
2022/06/19 08:50:05;;;;;;;9.52;2.00;;;;;;;15.14;100.00;101093.25;5069260;28;20040;-48
2022/06/19 08:52:45;;;;;;;9.13;2.47;;;;;;;15.03;100.00;101084.34;5059108;28;20044;-50
2022/06/19 08:55:29;;;;;;;11.75;2.28;;;;;;;14.82;100.00;101101.94;5065034;28;20049;-47
2022/06/19 08:58:10;;;;;;;12.38;2.30;;;;;;;14.82;100.00;101157.56;5058443;28;20044;-49
2022/06/19 09:00:49;;;;;;;15.10;2.05;;;;;;;14.94;100.00;101176.94;5062897;28;20426;-49
2022/06/19 09:05:36;;;;;;;11.50;2.08;;;;;;;14.68;100.00;101148.91;5061387;28;20106;-49
2022/06/19 09:06:28;;;;;;;10.77;2.00;;;;;;;14.82;100.00;101125.78;5058864;28;20053;-53
2022/06/19 09:09:15;;;;;;;13.32;2.42;;;;;;;14.72;100.00;101082.47;5055274;28;20102;-49
2022/06/19 09:12:15;;;;;;;10.68;1.95;;;;;;;14.73;100.00;101037.34;5059247;28;20044;-51
2022/06/19 09:14:51;;;;;;;11.27;1.98;;;;;;;14.55;100.00;101039.63;5060631;28;20106;-50
2022/06/19 09:17:28;;;;;;;11.27;2.15;;;;;;;14.66;100.00;101038.81;5074295;28;20420;-49
2022/06/19 09:20:05;;;;;;;9.27;2.25;;;;;;;14.63;100.00;101049.63;5074029;28;20037;-48
2022/06/19 09:22:59;;;;;;;12.50;2.90;;;;;;;14.70;100.00;101070.19;5070842;28;20522;-48
2022/06/19 09:25:46;;;;;;;11.18;2.35;;;;;;;14.91;100.00;101053.56;5072155;28;20044;-49
2022/06/19 09:28:20;;;;;;;11.98;2.00;;;;;;;14.94;100.00;101031.28;5074088;28;20048;-51
2022/06/19 09:30:54;;;;;;;11.82;2.25;;;;;;;14.91;100.00;100995.31;5069171;28;20376;-49
2022/06/19 09:33:34;;;;;;;9.05;1.63;;;;;;;14.86;99.31;100973.66;5070515;28;20515;-49
2022/06/19 09:36:07;;;;;;;8.65;1.98;;;;;;;15.04;100.00;100955.44;5073834;28;20517;-50
2022/06/19 09:38:39;;;;;;;15.50;2.65;;;;;;;15.01;96.90;100951.25;5073414;28;20521;-49
2022/06/19 09:41:14;;;;;;;9.17;1.80;;;;;;;15.06;97.71;100972.03;5073419;28;20136;-50
2022/06/19 09:43:49;;;;;;;10.75;2.42;;;;;;;15.21;95.63;100986.69;5070025;28;20492;-50
2022/06/19 09:46:22;;;;;;;6.85;1.45;;;;;;;15.36;94.87;100994.31;5070154;28;20476;-50
2022/06/19 09:48:57;;;;;;;10.52;1.58;;;;;;;15.53;91.38;101007.00;5073407;28;20140;-48
2022/06/19 09:51:33;;;;;;;10.25;1.88;;;;;;;15.75;92.04;101038.81;5073475;28;20507;-52
2022/06/19 09:54:09;;;;;;;10.27;1.83;;;;;;;15.96;90.07;101047.63;5073772;28;20056;-52
2022/06/19 09:56:46;;;;;;;9.05;1.55;;;;;;;16.18;86.81;101057.28;5073276;28;20052;-50
2022/06/19 09:59:20;;;;;;;9.77;1.52;;;;;;;16.54;88.11;101057.72;5071496;28;20498;-49
2022/06/19 10:01:56;;;;;;;9.00;1.90;;;;;;;16.82;84.04;101065.06;5067533;28;20071;-49
2022/06/19 10:04:35;;;;;;;9.98;1.83;;;;;;;17.09;82.06;101069.78;5073096;28;20119;-49
2022/06/19 10:07:10;;;;;;;8.55;1.60;;;;;;;17.25;80.01;101077.22;5073293;28;20056;-51
2022/06/19 10:09:46;;;;;;;6.13;1.38;;;;;;;17.64;78.36;101081.72;5072692;28;20127;-51
2022/06/19 10:12:22;;;;;;;8.73;1.60;;;;;;;18.01;78.10;101073.03;5069255;28;20040;-49
2022/06/19 10:14:51;;;;;;;7.63;1.23;;;;;;;18.25;72.38;101072.56;5068731;28;20060;-48
2022/06/19 10:17:24;;;;;;;5.80;1.30;;;;;;;18.47;70.08;101065.19;5072935;28;20049;-46
2022/06/19 10:19:54;;;;;;;;;;;;;;;18.69;69.59;101071.97;5073301;28;20059;-47
2022/06/19 10:22:39;;;;;;;5.97;1.40;;;;;;;18.96;71.71;101059.66;5069685;28;19924;-50
2022/06/19 10:25:31;;;;;;;4.85;1.10;;;;;;;19.22;62.86;101035.78;5069108;28;20052;-51
2022/06/19 10:28:19;;;;;;;5.90;1.10;;;;;;;19.35;60.23;101028.22;5072812;28;20048;-50
2022/06/19 10:30:56;;;;;;;4.30;0.90;;;;;;;19.49;61.38;101018.84;5072610;28;20078;-51
2022/06/19 10:33:33;;;;;;;3.15;1.00;;;;;;;19.79;61.52;101023.91;5072483;28;20048;-50
2022/06/19 10:36:11;;;;;;;5.55;0.90;;;;;;;19.83;60.34;101012.78;5072624;28;20041;-52
2022/06/19 10:38:57;;;;;;;4.25;1.17;;;;;;;19.99;58.69;101009.41;5072207;28;20044;-53
2022/06/19 10:44:29;;;;;;;4.38;1.10;;;;;;;20.23;59.85;101013.19;5070285;28;20036;-51
2022/06/19 10:47:17;;;;;;;5.78;0.90;;;;;;;20.03;59.06;101005.41;5077605;28;20070;-52
2022/06/19 10:50:02;;;;;;;5.05;1.02;;;;;;;19.97;58.31;100994.53;5072465;28;20114;-51
2022/06/19 10:52:41;;;;;;;5.35;1.10;;;;;;;20.20;59.96;101013.50;5068197;28;20052;-51
2022/06/19 10:55:17;;;;;;;4.28;0.80;;;;;;;20.74;62.68;101002.59;5070007;28;20102;-48
2022/06/19 10:57:58;;;;;;;4.65;1.25;;;;;;;20.92;60.54;100992.59;5072178;28;20492;-52
2022/06/19 11:00:26;;;;;;;7.90;1.63;;;;;;;21.18;59.25;100980.09;5072142;28;20071;-46
2022/06/19 11:05:53;;;;;;;9.77;1.58;;;;;;;21.33;57.23;100999.81;5068017;28;20091;-52
2022/06/19 11:08:27;;;;;;;7.60;1.50;;;;;;;21.15;58.60;101001.81;5070701;28;20415;-49
2022/06/19 11:10:59;;;;;;;6.40;1.58;;;;;;;21.16;59.50;101014.16;5072200;28;20044;-52
2022/06/19 11:14:02;;;;;;;6.07;1.67;;;;;;;21.57;58.95;101025.75;5071988;28;20110;-51
2022/06/19 11:16:33;;;;;;;8.85;1.75;;;;;;;21.99;59.34;101021.19;5067711;28;20053;-52
2022/06/19 11:19:01;;;;;;;7.55;1.92;;;;;;;21.93;59.16;101024.56;5066882;28;20525;-49
2022/06/19 11:21:33;;;;;;;6.07;1.35;;;;;;;22.10;59.68;101019.97;5071180;28;20102;-50
2022/06/19 11:24:05;;;;;;;6.72;1.92;;;;;;;22.25;56.76;101025.47;5071876;28;20044;-47
2022/06/19 11:26:39;;;;;;;8.85;1.70;;;;;;;22.50;57.90;101038.81;5071948;28;20040;-53
2022/06/19 11:29:16;;;;;;;6.95;1.70;;;;;;;22.70;56.86;101050.78;5071740;28;20450;-50
2022/06/19 11:32:02;;;;;;;7.82;1.75;;;;;;;22.55;58.60;101052.50;5071822;28;20357;-50
2022/06/19 11:34:48;;;;;;;9.75;1.98;;;;;;;22.87;58.75;101058.75;5072031;28;20073;-52
2022/06/19 11:37:21;;;;;;;8.10;1.80;;;;;;;22.79;56.92;101056.94;5071827;28;20110;-52
2022/06/19 11:39:54;;;;;;;8.18;2.28;;;;;;;22.83;56.42;101060.09;5071503;28;20135;-49
2022/06/19 11:42:33;;;;;;;10.20;2.30;;;;;;;22.98;57.13;101057.50;5071603;28;20063;-53
2022/06/19 11:45:07;;;;;;;11.00;2.00;;;;;;;23.15;58.21;101037.66;5087536;28;20052;-53
2022/06/19 11:47:41;;;;;;;9.43;2.22;;;;;;;23.30;57.19;101037.69;5068694;28;20075;-50
2022/06/19 11:50:19;;;;;;;7.47;1.90;;;;;;;23.37;57.09;101035.97;5067790;28;20575;-52
2022/06/19 11:52:52;;;;;;;8.82;2.35;;;;;;;23.21;57.23;101044.16;5071837;28;20041;-50